Rose, Nebraska
Current Conditions -  °F | °C
As of 8:55 PM on Sunday 23 Nov 2014 (Local Time) from KANW Reporting Station
Overcast Overcast  
Wind Chill: 19°   Ceiling: 6000
Heat Index: 33°   Visibility: 10mi
Dew Point: 21°   Wind: 31mph
Humidity: 61%   Direction: 320°NW
Pressure: 29.67"   Gusts: 41mph
Location:  42.15°N, 99.47°W
Report Text: KANW 240255Z AUTO 32027G36KT 10SM SCT045 OVC060 01/M06 A2967 RMK AO2 T00061061
Loading
Personal Weather Stations






























Interactive Weather Map New forecast layout! Learn more

10-Day Weather Forecast

Advertisements
Track Severe Weather on mobile